createdAt,value
2022-10-20T00:01:37.745Z,26.6
2022-10-20T00:07:07.937Z,26.6
2022-10-20T00:12:38.395Z,26.6
2022-10-20T00:18:07.277Z,26.5
2022-10-20T00:23:37.407Z,26.6
2022-10-20T00:29:07.619Z,26.6
2022-10-20T00:34:37.841Z,26.5
2022-10-20T00:40:07.954Z,26.5
2022-10-20T00:45:38.076Z,26.5
2022-10-20T00:51:08.402Z,26.5
2022-10-20T00:56:38.515Z,26.5
2022-10-20T01:02:07.749Z,26.5
2022-10-20T01:07:38.191Z,26.5
2022-10-20T01:13:08.050Z,26.5
2022-10-20T01:18:37.243Z,26.5
2022-10-20T01:24:07.558Z,26.5
2022-10-20T01:29:37.722Z,26.5
2022-10-20T01:35:07.861Z,26.5
2022-10-20T01:40:38.172Z,26.5
2022-10-20T01:46:08.292Z,26.5
2022-10-20T01:51:37.554Z,26.5
2022-10-20T01:57:07.804Z,26.5
2022-10-20T02:02:38.227Z,26.5
2022-10-20T02:08:07.075Z,26.5
2022-10-20T02:13:37.252Z,26.5
2022-10-20T02:19:06.416Z,26.4
2022-10-20T02:24:36.523Z,26.4
2022-10-20T02:30:06.688Z,26.4
2022-10-20T02:35:35.800Z,26.4
2022-10-20T02:41:05.950Z,26.4
2022-10-20T02:46:36.147Z,26.4
2022-10-20T02:52:06.424Z,26.4
2022-10-20T02:57:36.927Z,26.4
2022-10-20T03:03:06.956Z,26.4
2022-10-20T03:08:37.188Z,26.4
2022-10-20T03:14:07.393Z,26.4
2022-10-20T03:19:37.706Z,26.4
2022-10-20T03:25:07.880Z,26.4
2022-10-20T03:30:38.066Z,26.4
2022-10-20T03:36:08.435Z,26.4
2022-10-20T03:41:38.621Z,26.4
2022-10-20T03:47:07.839Z,26.4
2022-10-20T03:52:38.277Z,26.4
2022-10-20T03:58:08.334Z,26.4
2022-10-20T04:03:37.518Z,26.4
2022-10-20T04:09:07.825Z,26.4
2022-10-20T04:14:37.940Z,26.4
2022-10-20T04:20:07.160Z,26.4
2022-10-20T04:25:37.351Z,26.3
2022-10-20T04:31:06.527Z,26.3
2022-10-20T04:36:36.725Z,26.3
2022-10-20T04:42:06.955Z,26.3
2022-10-20T04:47:36.419Z,26.3
2022-10-20T04:53:06.349Z,26.3
2022-10-20T04:58:36.626Z,26.3
2022-10-20T05:04:07.025Z,26.3
2022-10-20T05:09:37.266Z,26.3
2022-10-20T05:15:07.545Z,26.3
2022-10-20T05:20:41.189Z,26.3
2022-10-20T05:26:08.055Z,26.3
2022-10-20T05:31:38.303Z,26.3
2022-10-20T05:37:08.628Z,26.3
2022-10-20T05:42:39.202Z,26.3
2022-10-20T05:48:09.209Z,26.3
2022-10-20T05:53:39.491Z,26.3
2022-10-20T05:59:09.701Z,26.3
2022-10-20T06:04:40.081Z,26.3
2022-10-20T06:10:10.259Z,26.3
2022-10-20T06:15:40.468Z,26.2
2022-10-20T06:21:09.721Z,26.2
2022-10-20T06:26:39.920Z,26.2
2022-10-20T06:32:09.199Z,26.2
2022-10-20T06:37:39.388Z,26.2
2022-10-20T06:43:09.624Z,26.3
2022-10-20T06:48:40.020Z,26.2
2022-10-20T06:54:10.249Z,26.2
2022-10-20T06:59:40.436Z,26.2
2022-10-20T07:05:09.663Z,26.2
2022-10-20T07:10:39.931Z,26.2
2022-10-20T07:16:09.145Z,26.2
2022-10-20T07:21:41.742Z,26.2
2022-10-20T07:27:09.595Z,26.2
2022-10-20T07:32:39.126Z,26.2
2022-10-20T07:38:09.088Z,26.2
2022-10-20T07:43:39.324Z,26.2
2022-10-20T07:49:39.274Z,26.2
2022-10-20T07:54:38.782Z,26.2
2022-10-20T08:00:08.063Z,26.2
2022-10-20T08:05:38.294Z,26.2
2022-10-20T08:11:10.395Z,26.2
2022-10-20T08:16:39.097Z,26.2
2022-10-20T08:22:08.058Z,26.2
2022-10-20T08:27:38.276Z,26.2
2022-10-20T08:33:07.634Z,26.2
2022-10-20T08:38:37.873Z,26.2
2022-10-20T08:44:07.197Z,26.2
2022-10-20T08:49:37.409Z,26.2
2022-10-20T08:55:07.635Z,26.2
2022-10-20T09:00:37.920Z,26.2
2022-10-20T09:06:08.140Z,26.2
2022-10-20T09:11:38.407Z,26.2
2022-10-20T09:17:11.356Z,26.2
2022-10-20T09:22:37.759Z,26.2
2022-10-20T09:28:08.295Z,26.2
2022-10-20T09:33:38.289Z,26.2
2022-10-20T09:39:08.481Z,26.2
2022-10-20T09:44:37.742Z,26.2
2022-10-20T09:50:07.900Z,26.2
2022-10-20T09:55:38.239Z,26.2
2022-10-20T10:01:08.498Z,26.2
2022-10-20T10:06:38.614Z,26.2
2022-10-20T10:12:07.828Z,26.2
2022-10-20T10:17:38.447Z,26.2
2022-10-20T10:23:08.229Z,26.2
2022-10-20T10:28:37.432Z,26.2
2022-10-20T10:34:07.672Z,26.2
2022-10-20T10:39:37.879Z,26.2
2022-10-20T10:45:07.096Z,26.2
2022-10-20T10:50:37.330Z,26.2
2022-10-20T10:56:06.601Z,26.2
2022-10-20T11:01:36.757Z,26.2
2022-10-20T11:07:06.991Z,26.2
2022-10-20T11:12:36.193Z,26.1
2022-10-20T11:18:06.464Z,26.1
2022-10-20T11:23:36.765Z,26.1
2022-10-20T11:29:06.962Z,26.1
2022-10-20T11:34:37.292Z,26.1
2022-10-20T11:40:08.687Z,26.1
2022-10-20T11:45:36.732Z,26.1
2022-10-20T11:51:06.951Z,26.1
2022-10-20T11:56:37.328Z,26.1
2022-10-20T12:02:07.586Z,26.1
2022-10-20T12:07:36.751Z,26.1
2022-10-20T12:13:06.995Z,26.1
2022-10-20T12:18:37.193Z,26.1
2022-10-20T12:24:07.507Z,26.1
2022-10-20T12:29:36.762Z,26.1
2022-10-20T12:35:06.926Z,26.1
2022-10-20T12:40:36.182Z,26.1
2022-10-20T12:46:06.479Z,26.1
2022-10-20T12:51:36.559Z,26.1
2022-10-20T12:57:07.055Z,26.1
2022-10-20T13:02:37.300Z,26.1
2022-10-20T13:08:06.501Z,26.1
2022-10-20T13:13:36.737Z,26.1
2022-10-20T13:19:06.953Z,26.1
2022-10-20T13:24:40.547Z,26.1
2022-10-20T13:30:07.498Z,26.1
2022-10-20T13:35:37.684Z,26.1
2022-10-20T13:41:08.104Z,26.1
2022-10-20T13:46:38.297Z,26
2022-10-20T13:52:07.590Z,26
2022-10-20T13:57:37.722Z,26.1
2022-10-20T14:03:07.972Z,26
2022-10-20T14:08:37.345Z,26
2022-10-20T14:14:07.443Z,26
2022-10-20T14:19:37.671Z,26
2022-10-20T14:25:08.030Z,26
2022-10-20T14:30:41.141Z,26
2022-10-20T14:36:07.452Z,26
2022-10-20T14:41:37.684Z,26
2022-10-20T14:47:07.889Z,26
2022-10-20T14:52:37.576Z,26
2022-10-20T14:58:07.361Z,26
2022-10-20T15:03:37.747Z,26
2022-10-20T15:09:07.935Z,26
2022-10-20T15:14:38.060Z,26
2022-10-20T15:20:07.243Z,26
2022-10-20T15:25:37.419Z,26
2022-10-20T15:31:07.634Z,26
2022-10-20T15:36:41.907Z,26
2022-10-20T15:42:08.139Z,26
2022-10-20T15:47:37.320Z,26
2022-10-20T15:53:07.468Z,26
2022-10-20T15:58:39.780Z,26
2022-10-20T16:04:06.840Z,26
2022-10-20T16:09:36.029Z,26
2022-10-20T16:15:06.221Z,26
2022-10-20T16:20:35.471Z,26
2022-10-20T16:26:05.632Z,26
2022-10-20T16:31:35.823Z,25.9
2022-10-20T16:37:05.040Z,26
2022-10-20T16:42:35.213Z,26
2022-10-20T16:48:05.389Z,25.9
2022-10-20T16:53:35.715Z,25.9
2022-10-20T16:59:05.871Z,26
2022-10-20T17:04:36.148Z,25.9
2022-10-20T17:10:06.364Z,25.9
2022-10-20T17:15:36.497Z,25.9
2022-10-20T17:21:05.668Z,25.9
2022-10-20T17:26:35.864Z,25.9
2022-10-20T17:32:05.041Z,25.9
2022-10-20T17:37:35.258Z,25.9
2022-10-20T17:43:05.507Z,25.9
2022-10-20T17:48:35.799Z,25.9
2022-10-20T17:54:06.019Z,25.9
2022-10-20T17:59:47.314Z,25.9
2022-10-20T18:05:05.440Z,25.9
2022-10-20T18:10:37.249Z,25.9
2022-10-20T18:16:05.851Z,26
2022-10-20T18:21:36.164Z,26
2022-10-20T18:27:06.363Z,26
2022-10-20T18:32:36.009Z,26
2022-10-20T18:38:05.722Z,26
2022-10-20T18:43:35.934Z,26
2022-10-20T18:49:06.287Z,26.1
2022-10-20T18:54:36.465Z,26.1
2022-10-20T19:00:05.652Z,26.1
2022-10-20T19:05:35.836Z,26.1
2022-10-20T19:11:06.016Z,26.1
2022-10-20T19:16:35.284Z,26.1
2022-10-20T19:22:05.390Z,26
2022-10-20T19:27:35.553Z,26
2022-10-20T19:33:04.761Z,26
2022-10-20T19:38:34.947Z,26
2022-10-20T19:44:04.112Z,26
2022-10-20T19:49:33.349Z,26
2022-10-20T19:55:03.567Z,26
2022-10-20T20:00:33.741Z,26
2022-10-20T20:06:02.945Z,25.9
2022-10-20T20:11:33.244Z,26
2022-10-20T20:17:05.214Z,25.9
2022-10-20T20:22:33.727Z,25.9
2022-10-20T20:28:03.978Z,25.9
2022-10-20T20:33:34.272Z,25.9
2022-10-20T20:39:04.511Z,25.9
2022-10-20T20:44:34.891Z,25.9
2022-10-20T20:50:05.060Z,25.9
2022-10-20T20:55:35.277Z,25.9
2022-10-20T21:01:04.580Z,25.9
2022-10-20T21:07:00.212Z,25.9
2022-10-20T21:12:04.908Z,25.9
2022-10-20T21:17:34.145Z,25.9
2022-10-20T21:23:04.335Z,25.9
2022-10-20T21:28:34.665Z,25.9
2022-10-20T21:34:04.918Z,25.9
2022-10-20T21:39:35.253Z,25.9
2022-10-20T21:45:05.625Z,25.9
2022-10-20T21:50:35.863Z,25.9
2022-10-20T21:56:05.091Z,25.9
2022-10-20T22:01:35.339Z,25.9
2022-10-20T22:07:05.606Z,25.9
2022-10-20T22:18:05.017Z,25.9
2022-10-20T22:23:35.277Z,25.9
2022-10-20T22:29:05.604Z,25.9
2022-10-20T22:34:35.908Z,25.9
2022-10-20T22:40:05.182Z,25.9
2022-10-20T22:45:35.421Z,25.9
2022-10-20T22:51:05.672Z,25.9
2022-10-20T22:56:34.964Z,25.9
2022-10-20T23:02:05.164Z,25.9
2022-10-20T23:07:34.601Z,25.9
2022-10-20T23:13:04.683Z,25.9
2022-10-20T23:18:35.067Z,25.8
2022-10-20T23:24:05.416Z,25.9
2022-10-20T23:29:34.857Z,25.8
2022-10-20T23:35:05.073Z,25.8
2022-10-20T23:40:35.338Z,25.8
2022-10-20T23:46:04.624Z,25.8
2022-10-20T23:51:34.847Z,25.8
2022-10-20T23:57:04.127Z,25.8
